createdAt,value
2019-04-11T00:00:26.130Z,11.07
2019-04-11T00:05:31.854Z,10.90
2019-04-11T00:10:38.120Z,11.73
2019-04-11T00:15:45.037Z,10.40
2019-04-11T00:20:52.718Z,11.70
2019-04-11T00:25:59.982Z,11.30
2019-04-11T00:31:07.013Z,11.63
2019-04-11T00:36:15.064Z,12.30
2019-04-11T00:41:21.944Z,11.77
2019-04-11T00:46:28.827Z,11.87
2019-04-11T00:51:34.686Z,12.03
2019-04-11T00:56:42.249Z,11.50
2019-04-11T01:01:51.436Z,11.77
2019-04-11T01:06:58.628Z,11.33
2019-04-11T01:12:06.611Z,12.27
2019-04-11T01:17:13.354Z,11.83
2019-04-11T01:22:20.276Z,11.60
2019-04-11T01:27:45.902Z,13.00
2019-04-11T01:32:55.229Z,12.33
2019-04-11T01:38:02.064Z,12.13
2019-04-11T01:43:09.118Z,12.97
2019-04-11T01:48:19.594Z,12.10
2019-04-11T01:53:26.848Z,12.83
2019-04-11T01:58:33.006Z,12.90
2019-04-11T02:03:59.625Z,11.70
2019-04-11T02:09:11.549Z,13.50
2019-04-11T02:14:19.955Z,13.23
2019-04-11T02:19:29.727Z,12.43
2019-04-11T02:24:39.763Z,12.23
2019-04-11T02:29:46.901Z,13.07
2019-04-11T02:34:57.171Z,12.73
2019-04-11T02:40:03.401Z,12.20
2019-04-11T02:45:25.070Z,14.00
2019-04-11T02:50:25.417Z,12.73
2019-04-11T02:55:31.525Z,13.90
2019-04-11T03:00:40.214Z,13.20
2019-04-11T03:05:47.033Z,12.33
2019-04-11T03:10:57.557Z,12.93
2019-04-11T03:16:23.670Z,12.60
2019-04-11T03:21:20.500Z,12.40
2019-04-11T03:26:25.030Z,12.27
2019-04-11T03:32:13.236Z,12.10
2019-04-11T03:42:06.760Z,12.33
2019-04-11T03:47:16.830Z,11.80
2019-04-11T03:52:11.621Z,11.83
2019-04-11T03:57:18.192Z,12.97
2019-04-11T04:02:25.328Z,12.53
2019-04-11T04:07:32.065Z,12.60
2019-04-11T04:12:40.372Z,12.57
2019-04-11T04:18:03.376Z,13.50
2019-04-11T04:23:16.622Z,11.80
2019-04-11T04:28:27.228Z,13.87
2019-04-11T04:33:35.600Z,13.47
2019-04-11T04:38:44.363Z,13.07
2019-04-11T04:43:52.745Z,14.00
2019-04-11T04:48:59.191Z,13.97
2019-04-11T04:54:08.125Z,13.97
2019-04-11T04:59:16.339Z,13.00
2019-04-11T05:04:23.571Z,14.20
2019-04-11T05:09:32.031Z,13.50
2019-04-11T05:14:39.436Z,13.60
2019-04-11T05:19:45.224Z,13.07
2019-04-11T05:24:51.815Z,13.90
2019-04-11T05:29:58.710Z,14.33
2019-04-11T05:35:07.050Z,14.17
2019-04-11T05:40:12.961Z,14.70
2019-04-11T05:45:22.897Z,14.87
2019-04-11T05:50:30.283Z,14.43
2019-04-11T05:55:41.374Z,14.47
2019-04-11T06:00:53.339Z,14.63
2019-04-11T06:06:06.551Z,15.30
2019-04-11T06:11:19.482Z,14.03
2019-04-11T06:16:36.141Z,14.73
2019-04-11T06:21:36.919Z,14.80
2019-04-11T06:27:01.121Z,14.70
2019-04-11T06:32:19.913Z,14.13
2019-04-11T06:43:06.044Z,14.40
2019-04-11T06:48:24.779Z,14.77
2019-04-11T06:53:32.731Z,14.73
2019-04-11T06:58:40.858Z,13.20
2019-04-11T07:03:49.057Z,12.17
2019-04-11T07:08:59.550Z,14.83
2019-04-11T07:14:24.762Z,11.73
2019-04-11T07:19:32.300Z,12.87
2019-04-11T07:24:46.135Z,13.33
2019-04-11T07:30:11.417Z,10.43
2019-04-11T07:35:36.275Z,11.23
2019-04-11T07:40:56.765Z,12.37
2019-04-11T07:46:05.211Z,9.87
2019-04-11T07:51:15.276Z,11.20
2019-04-11T07:56:29.965Z,12.30
2019-04-11T08:07:16.004Z,9.20
2019-04-11T08:12:25.664Z,9.63
2019-04-11T08:17:37.602Z,9.83
2019-04-11T08:22:43.354Z,9.63
2019-04-11T08:28:01.362Z,9.13
2019-04-11T08:33:08.039Z,10.20
2019-04-11T08:38:34.653Z,10.23
2019-04-11T08:43:43.413Z,11.77
2019-04-11T08:48:53.043Z,12.20
2019-04-11T08:54:01.774Z,11.20
2019-04-11T08:59:13.578Z,12.00
2019-04-11T09:04:39.684Z,11.63
2019-04-11T09:10:07.428Z,11.67
2019-04-11T09:15:32.948Z,10.43
2019-04-11T09:20:45.677Z,9.67
2019-04-11T09:26:01.732Z,10.47
2019-04-11T09:31:22.176Z,10.10
2019-04-11T09:36:40.812Z,10.10
2019-04-11T09:41:48.988Z,6.00
2019-04-11T09:46:59.175Z,9.70
2019-04-11T09:52:09.103Z,9.60
2019-04-11T09:57:18.762Z,5.37
2019-04-11T10:02:31.695Z,8.77
2019-04-11T10:07:55.905Z,8.90
2019-04-11T10:13:20.572Z,8.80
2019-04-11T10:18:34.041Z,9.70
2019-04-11T10:23:56.843Z,10.40
2019-04-11T10:29:08.646Z,10.00
2019-04-11T10:34:33.595Z,9.67
2019-04-11T10:39:59.973Z,8.80
2019-04-11T10:45:18.375Z,9.67
2019-04-11T10:50:29.756Z,10.17
2019-04-11T10:55:49.596Z,9.40
2019-04-11T11:00:58.327Z,8.37
2019-04-11T11:06:05.524Z,9.30
2019-04-11T11:11:17.516Z,10.10
2019-04-11T11:16:27.917Z,9.63
2019-04-11T11:21:35.458Z,10.40
2019-04-11T11:26:43.463Z,10.13
2019-04-11T11:31:52.974Z,8.90
2019-04-11T11:37:08.766Z,9.10
2019-04-11T11:42:23.452Z,9.63
2019-04-11T11:47:39.561Z,9.10
2019-04-11T11:53:10.292Z,9.87
2019-04-11T11:58:30.299Z,7.00
2019-04-11T12:03:50.662Z,8.67
2019-04-11T12:09:02.481Z,10.47
2019-04-11T12:14:25.483Z,9.10
2019-04-11T12:19:45.746Z,8.80
2019-04-11T12:24:55.096Z,9.33
2019-04-11T12:30:08.672Z,9.27
2019-04-11T12:35:26.330Z,8.70
2019-04-11T12:40:52.663Z,10.17
2019-04-11T12:46:17.159Z,9.30
2019-04-11T12:51:41.385Z,9.30
2019-04-11T12:56:50.673Z,8.57
2019-04-11T13:02:15.288Z,10.00
2019-04-11T13:07:39.664Z,9.10
2019-04-11T13:12:47.601Z,9.83
2019-04-11T13:18:04.782Z,9.50
2019-04-11T13:23:32.241Z,9.50
2019-04-11T13:28:41.845Z,11.67
2019-04-11T13:33:49.834Z,10.97
2019-04-11T13:38:57.063Z,9.47
2019-04-11T13:44:06.284Z,8.83
2019-04-11T13:49:15.249Z,9.17
2019-04-11T13:54:24.382Z,9.67
2019-04-11T13:59:35.417Z,8.47
2019-04-11T14:04:50.822Z,9.17
2019-04-11T14:10:03.072Z,8.13
2019-04-11T14:15:14.980Z,12.83
2019-04-11T14:20:29.826Z,10.47
2019-04-11T14:25:52.636Z,9.23
2019-04-11T14:31:08.128Z,9.57
2019-04-11T14:36:33.712Z,10.77
2019-04-11T14:41:41.551Z,9.27
2019-04-11T14:46:47.250Z,9.50
2019-04-11T14:52:07.494Z,10.03
2019-04-11T14:57:16.717Z,8.33
2019-04-11T15:02:25.501Z,10.00
2019-04-11T15:07:32.715Z,9.57
2019-04-11T15:12:40.944Z,9.40
2019-04-11T15:17:50.061Z,9.63
2019-04-11T15:22:58.086Z,9.93
2019-04-11T15:28:24.018Z,8.80
2019-04-11T15:33:41.068Z,9.20
2019-04-11T15:39:04.611Z,8.10
2019-04-11T15:44:18.617Z,8.63
2019-04-11T15:49:46.602Z,9.47
2019-04-11T15:55:02.222Z,8.33
2019-04-11T16:00:22.641Z,9.83
2019-04-11T16:11:12.954Z,9.73
2019-04-11T16:16:20.886Z,9.20
2019-04-11T16:21:40.010Z,9.80
2019-04-11T16:26:56.163Z,9.90
2019-04-11T16:32:07.143Z,9.60
2019-04-11T16:37:17.554Z,9.80
2019-04-11T16:42:24.857Z,9.47
2019-04-11T16:47:35.026Z,7.90
2019-04-11T16:52:43.743Z,8.80
2019-04-11T16:57:50.559Z,8.57
2019-04-11T17:02:56.796Z,8.77
2019-04-11T17:08:08.323Z,7.50
2019-04-11T17:13:15.160Z,8.20
2019-04-11T17:18:21.898Z,7.60
2019-04-11T17:23:28.725Z,7.63
2019-04-11T17:28:34.851Z,7.63
2019-04-11T17:33:41.791Z,7.57
2019-04-11T17:38:47.327Z,7.50
2019-04-11T17:43:53.007Z,7.73
2019-04-11T17:48:58.831Z,8.07
2019-04-11T17:54:05.211Z,7.60
2019-04-11T17:59:12.556Z,7.70
2019-04-11T18:04:18.930Z,6.67
2019-04-11T18:09:26.302Z,6.83
2019-04-11T18:14:32.140Z,6.57
2019-04-11T18:19:38.712Z,6.17
2019-04-11T18:24:49.914Z,5.67
2019-04-11T18:29:53.933Z,5.50
2019-04-11T18:35:02.384Z,5.80
2019-04-11T18:40:10.584Z,5.73
2019-04-11T18:45:19.216Z,5.83
2019-04-11T18:50:28.805Z,5.70
2019-04-11T18:55:36.025Z,4.60
2019-04-11T19:00:43.678Z,4.90
2019-04-11T19:05:51.714Z,5.50
2019-04-11T19:10:58.146Z,5.63
2019-04-11T19:16:04.478Z,5.43
2019-04-11T19:21:11.146Z,5.63
2019-04-11T19:26:17.504Z,5.47
2019-04-11T19:31:27.152Z,6.07
2019-04-11T19:36:31.538Z,5.87
2019-04-11T19:41:37.095Z,6.50
2019-04-11T19:46:43.753Z,6.17
2019-04-11T19:51:52.961Z,6.67
2019-04-11T19:57:05.213Z,6.50
2019-04-11T20:02:11.341Z,7.20
2019-04-11T20:07:17.679Z,6.87
2019-04-11T20:12:25.370Z,6.40
2019-04-11T20:17:43.487Z,7.20
2019-04-11T20:22:40.606Z,6.73
2019-04-11T20:27:48.171Z,7.37
2019-04-11T20:32:54.354Z,6.53
2019-04-11T20:38:15.933Z,6.60
2019-04-11T20:43:25.608Z,6.97
2019-04-11T20:48:35.117Z,6.97
2019-04-11T20:53:41.802Z,6.63
2019-04-11T20:58:47.521Z,6.70
2019-04-11T21:03:53.220Z,6.63
2019-04-11T21:09:03.035Z,7.47
2019-04-11T21:14:10.725Z,6.83
2019-04-11T21:19:17.356Z,6.63
2019-04-11T21:24:24.087Z,6.97
2019-04-11T21:29:30.798Z,6.43
2019-04-11T21:34:40.026Z,7.23
2019-04-11T21:39:45.799Z,7.00
2019-04-11T21:44:52.357Z,7.43
2019-04-11T21:49:59.044Z,7.47
2019-04-11T21:55:07.258Z,7.10
2019-04-11T22:00:27.915Z,6.60
2019-04-11T22:05:35.345Z,7.00
2019-04-11T22:10:41.855Z,6.40
2019-04-11T22:15:48.550Z,5.87
2019-04-11T22:20:55.836Z,5.70
2019-04-11T22:26:02.586Z,6.00
2019-04-11T22:31:11.074Z,5.93
2019-04-11T22:36:17.538Z,6.13
2019-04-11T22:41:24.201Z,6.43
2019-04-11T22:46:30.133Z,5.43
2019-04-11T23:08:31.080Z,5.90
2019-04-11T23:13:37.691Z,5.67
2019-04-11T23:18:44.875Z,5.83
2019-04-11T23:23:51.565Z,6.07
2019-04-11T23:28:58.741Z,5.13
2019-04-11T23:34:05.062Z,5.73
2019-04-11T23:39:12.731Z,6.33
2019-04-11T23:44:20.370Z,6.10
2019-04-11T23:49:29.220Z,5.97
2019-04-11T23:54:34.684Z,7.23
2019-04-11T23:59:41.157Z,6.73
